createdAt,value
2022-08-26T00:00:21.928Z,21.80
2022-08-26T00:02:50.469Z,21.80
2022-08-26T00:05:20.265Z,21.90
2022-08-26T00:07:49.524Z,21.90
2022-08-26T00:10:22.040Z,21.90
2022-08-26T00:12:54.328Z,22.00
2022-08-26T00:15:24.225Z,22.00
2022-08-26T00:17:54.205Z,22.10
2022-08-26T00:20:25.785Z,22.10
2022-08-26T00:22:55.536Z,22.20
2022-08-26T00:25:25.974Z,22.20
2022-08-26T00:27:54.817Z,22.20
2022-08-26T00:30:27.838Z,22.20
2022-08-26T00:32:57.678Z,22.30
2022-08-26T00:35:28.067Z,22.30
2022-08-26T00:37:57.732Z,22.30
2022-08-26T00:40:30.085Z,22.40
2022-08-26T00:42:59.130Z,22.40
2022-08-26T00:45:28.551Z,22.40
2022-08-26T00:48:02.113Z,22.50
2022-08-26T00:50:35.441Z,22.50
2022-08-26T00:53:21.418Z,22.50
2022-08-26T00:56:00.448Z,22.50
2022-08-26T00:58:32.276Z,22.40
2022-08-26T01:01:02.379Z,22.40
2022-08-26T01:03:34.624Z,22.40
2022-08-26T01:06:05.257Z,22.40
2022-08-26T01:08:41.777Z,22.40
2022-08-26T01:11:13.451Z,22.40
2022-08-26T01:13:42.611Z,22.40
2022-08-26T01:16:15.026Z,22.40
2022-08-26T01:18:45.060Z,22.40
2022-08-26T01:21:19.675Z,22.20
2022-08-26T01:23:52.321Z,22.20
2022-08-26T01:26:30.455Z,22.20
2022-08-26T01:29:00.928Z,22.10
2022-08-26T01:31:36.555Z,22.10
2022-08-26T01:34:10.806Z,22.10
2022-08-26T01:36:40.680Z,22.10
2022-08-26T01:39:12.393Z,22.10
2022-08-26T01:41:44.047Z,22.10
2022-08-26T01:44:17.892Z,22.10
2022-08-26T01:46:49.551Z,22.00
2022-08-26T01:49:20.286Z,22.00
2022-08-26T01:51:51.097Z,22.00
2022-08-26T01:54:22.997Z,22.00
2022-08-26T01:56:53.429Z,22.00
2022-08-26T01:59:24.204Z,22.00
2022-08-26T02:01:53.923Z,22.00
2022-08-26T02:04:26.685Z,22.00
2022-08-26T02:06:57.245Z,22.00
2022-08-26T02:09:29.181Z,22.00
2022-08-26T02:12:01.312Z,22.00
2022-08-26T02:14:34.161Z,21.90
2022-08-26T02:17:07.188Z,21.90
2022-08-26T02:19:40.477Z,21.90
2022-08-26T02:22:14.970Z,21.90
2022-08-26T02:24:51.514Z,21.80
2022-08-26T02:27:23.717Z,21.80
2022-08-26T02:29:56.100Z,21.70
2022-08-26T02:32:24.871Z,21.70
2022-08-26T02:34:55.721Z,21.70
2022-08-26T02:37:24.540Z,21.60
2022-08-26T02:39:55.365Z,21.60
2022-08-26T02:42:25.650Z,21.60
2022-08-26T02:44:54.512Z,21.60
2022-08-26T02:47:24.898Z,21.60
2022-08-26T02:49:53.586Z,21.60
2022-08-26T02:52:22.544Z,21.50
2022-08-26T02:54:51.109Z,21.50
2022-08-26T02:57:22.171Z,21.50
2022-08-26T02:59:50.920Z,21.40
2022-08-26T03:02:19.611Z,21.40
2022-08-26T03:04:57.918Z,21.40
2022-08-26T03:07:30.738Z,21.40
2022-08-26T03:09:59.600Z,21.30
2022-08-26T03:12:29.641Z,21.30
2022-08-26T03:14:58.522Z,21.30
2022-08-26T03:17:27.200Z,21.30
2022-08-26T03:19:57.350Z,21.30
2022-08-26T03:22:27.102Z,21.30
2022-08-26T03:24:55.929Z,21.30
2022-08-26T03:27:24.519Z,21.20
2022-08-26T03:30:12.105Z,21.20
2022-08-26T03:32:41.483Z,21.20
2022-08-26T03:35:11.116Z,21.20
2022-08-26T03:37:40.314Z,21.20
2022-08-26T03:40:11.414Z,21.10
2022-08-26T03:42:41.362Z,21.10
2022-08-26T03:45:16.388Z,21.10
2022-08-26T03:47:45.370Z,21.10
2022-08-26T03:50:16.837Z,21.10
2022-08-26T03:52:51.961Z,21.20
2022-08-26T03:55:23.757Z,21.20
2022-08-26T03:57:52.769Z,21.20
2022-08-26T04:00:22.848Z,21.20
2022-08-26T04:02:53.586Z,21.20
2022-08-26T04:05:23.634Z,21.20
2022-08-26T04:07:52.473Z,21.20
2022-08-26T04:10:28.396Z,21.20
2022-08-26T04:12:58.920Z,21.20
2022-08-26T04:15:29.417Z,21.20
2022-08-26T04:17:58.292Z,21.20
2022-08-26T04:20:27.341Z,21.20
2022-08-26T04:22:56.761Z,21.20
2022-08-26T04:25:25.726Z,21.20
2022-08-26T04:27:54.895Z,21.20
2022-08-26T04:30:23.579Z,21.20
2022-08-26T04:32:55.546Z,21.20
2022-08-26T04:35:26.118Z,21.20
2022-08-26T04:37:55.591Z,21.20
2022-08-26T04:40:26.555Z,21.20
2022-08-26T04:42:56.384Z,21.20
2022-08-26T04:45:25.252Z,21.20
2022-08-26T04:47:56.765Z,21.20
2022-08-26T04:50:26.917Z,21.20
2022-08-26T04:52:56.361Z,21.20
2022-08-26T04:55:38.642Z,21.20
2022-08-26T04:58:11.221Z,21.20
2022-08-26T05:00:40.292Z,21.30
2022-08-26T05:03:10.807Z,21.30
2022-08-26T05:05:42.505Z,21.30
2022-08-26T05:08:11.564Z,21.30
2022-08-26T05:10:42.000Z,21.30
2022-08-26T05:13:15.515Z,21.20
2022-08-26T05:15:45.085Z,21.20
2022-08-26T05:18:21.109Z,21.30
2022-08-26T05:20:54.594Z,21.40
2022-08-26T05:23:24.533Z,21.30
2022-08-26T05:25:59.291Z,21.30
2022-08-26T05:28:30.508Z,21.20
2022-08-26T05:30:59.166Z,21.20
2022-08-26T05:33:30.375Z,21.20
2022-08-26T05:35:58.932Z,21.20
2022-08-26T05:38:30.397Z,21.20
2022-08-26T05:40:59.113Z,21.30
2022-08-26T05:43:28.765Z,21.30
2022-08-26T05:46:07.726Z,21.20
2022-08-26T05:48:38.243Z,21.20
2022-08-26T05:51:09.706Z,21.20
2022-08-26T05:53:40.055Z,21.20
2022-08-26T05:56:13.490Z,21.30
2022-08-26T05:58:43.082Z,21.30
2022-08-26T06:01:19.484Z,21.20
2022-08-26T06:03:54.701Z,21.30
2022-08-26T06:06:28.026Z,21.40
2022-08-26T06:09:00.114Z,21.40
2022-08-26T06:11:32.404Z,21.40
2022-08-26T06:14:03.949Z,21.40
2022-08-26T06:16:35.629Z,21.40
2022-08-26T06:19:11.049Z,21.40
2022-08-26T06:21:41.639Z,21.30
2022-08-26T06:24:29.719Z,21.30
2022-08-26T06:27:01.412Z,21.30
2022-08-26T06:29:33.036Z,21.40
2022-08-26T06:32:02.813Z,21.40
2022-08-26T06:34:32.828Z,21.50
2022-08-26T06:37:03.468Z,21.40
2022-08-26T06:39:32.514Z,21.40
2022-08-26T06:42:02.555Z,21.50
2022-08-26T06:44:35.324Z,21.50
2022-08-26T06:47:03.982Z,21.50
2022-08-26T06:49:34.553Z,21.50
2022-08-26T06:52:03.349Z,21.60
2022-08-26T06:54:32.001Z,21.60
2022-08-26T06:57:01.211Z,21.60
2022-08-26T06:59:31.149Z,21.60
2022-08-26T07:01:59.887Z,21.60
2022-08-26T07:04:28.839Z,21.60
2022-08-26T07:06:59.148Z,21.60
2022-08-26T07:09:30.318Z,21.60
2022-08-26T07:11:59.028Z,21.60
2022-08-26T07:14:27.619Z,21.60
2022-08-26T07:16:56.387Z,21.60
2022-08-26T07:19:29.966Z,21.60
2022-08-26T07:22:03.600Z,21.60
2022-08-26T07:24:33.422Z,21.60
2022-08-26T07:27:05.879Z,21.60
2022-08-26T07:29:34.950Z,21.60
2022-08-26T07:32:04.604Z,21.60
2022-08-26T07:34:33.503Z,21.60
2022-08-26T07:37:03.639Z,21.60
2022-08-26T07:39:32.791Z,21.60
2022-08-26T07:42:07.583Z,21.60
2022-08-26T07:44:37.119Z,21.60
2022-08-26T07:47:10.101Z,21.60
2022-08-26T07:49:39.583Z,21.60
2022-08-26T07:52:09.716Z,21.70
2022-08-26T07:54:40.456Z,21.70
2022-08-26T07:57:09.399Z,21.70
2022-08-26T07:59:38.779Z,21.80
2022-08-26T08:02:07.366Z,21.80
2022-08-26T08:04:39.846Z,21.80
2022-08-26T08:07:11.561Z,21.80
2022-08-26T08:09:40.703Z,21.80
2022-08-26T08:12:14.218Z,21.90
2022-08-26T08:14:46.701Z,21.80
2022-08-26T08:17:17.250Z,21.80
2022-08-26T08:19:48.037Z,21.80
2022-08-26T08:22:21.700Z,21.90
2022-08-26T08:24:52.902Z,21.90
2022-08-26T08:27:24.069Z,21.90
2022-08-26T08:29:54.256Z,21.90
2022-08-26T08:32:24.481Z,21.90
2022-08-26T08:34:53.061Z,22.00
2022-08-26T08:37:23.956Z,22.00
2022-08-26T08:39:52.609Z,22.00
2022-08-26T08:42:37.786Z,22.00
2022-08-26T08:45:11.349Z,22.00
2022-08-26T08:47:43.084Z,22.00
2022-08-26T08:50:22.149Z,22.00
2022-08-26T08:52:57.304Z,22.00
2022-08-26T08:55:34.453Z,22.00
2022-08-26T08:58:08.968Z,22.00
2022-08-26T09:00:44.185Z,22.00
2022-08-26T09:03:24.230Z,22.00
2022-08-26T09:05:55.426Z,22.00
2022-08-26T09:08:29.387Z,22.00
2022-08-26T09:11:00.853Z,22.10
2022-08-26T09:13:31.529Z,22.10
2022-08-26T09:16:07.268Z,22.10
2022-08-26T09:18:57.513Z,22.10
2022-08-26T09:21:27.851Z,22.00
2022-08-26T09:23:58.252Z,22.00
2022-08-26T09:26:30.985Z,22.00
2022-08-26T09:29:03.204Z,22.00
2022-08-26T09:31:35.738Z,22.00
2022-08-26T09:34:09.068Z,22.00
2022-08-26T09:36:41.503Z,22.00
2022-08-26T09:39:29.979Z,22.00
2022-08-26T09:42:06.058Z,22.10
2022-08-26T09:44:35.544Z,22.10
2022-08-26T09:47:07.115Z,22.10
2022-08-26T09:49:37.779Z,22.20
2022-08-26T09:52:16.155Z,22.20
2022-08-26T09:54:59.160Z,22.20
2022-08-26T09:57:29.298Z,22.20
2022-08-26T09:59:57.916Z,22.20
2022-08-26T10:02:47.509Z,22.20
2022-08-26T10:05:19.132Z,22.20
2022-08-26T10:07:51.532Z,22.20
2022-08-26T10:10:24.003Z,22.20
2022-08-26T10:13:04.060Z,22.20
2022-08-26T10:15:43.366Z,22.20
2022-08-26T10:18:21.569Z,22.10
2022-08-26T10:20:58.826Z,22.10
2022-08-26T10:23:32.862Z,22.10
2022-08-26T10:26:06.518Z,22.10
2022-08-26T10:28:41.136Z,22.20
2022-08-26T10:31:27.586Z,22.20
2022-08-26T10:34:00.511Z,22.20
2022-08-26T10:37:14.614Z,22.20
2022-08-26T10:39:49.569Z,22.20
2022-08-26T10:42:31.070Z,22.10
2022-08-26T10:45:11.624Z,22.10
2022-08-26T10:47:47.305Z,22.10
2022-08-26T10:50:18.116Z,22.20
2022-08-26T10:52:58.592Z,22.20
2022-08-26T10:55:37.108Z,22.20
2022-08-26T10:58:26.241Z,22.20
2022-08-26T11:01:17.281Z,22.20
2022-08-26T11:03:58.725Z,22.20
2022-08-26T11:06:29.849Z,22.20
2022-08-26T11:08:59.849Z,22.20
2022-08-26T11:11:50.789Z,22.20
2022-08-26T11:14:45.946Z,22.20
2022-08-26T11:17:56.353Z,22.20
2022-08-26T11:20:41.515Z,22.10
2022-08-26T11:23:40.315Z,22.20
2022-08-26T11:26:35.638Z,22.20
2022-08-26T11:29:12.159Z,22.20
2022-08-26T11:31:57.647Z,22.20
2022-08-26T11:34:52.211Z,22.20
2022-08-26T11:37:23.471Z,22.20
2022-08-26T11:39:57.221Z,22.30
2022-08-26T11:42:35.750Z,22.30
2022-08-26T11:45:18.499Z,22.40
2022-08-26T11:47:49.439Z,22.40
2022-08-26T11:50:21.076Z,22.50
2022-08-26T11:52:54.802Z,22.50
2022-08-26T11:55:24.119Z,22.60
2022-08-26T11:57:55.827Z,22.70
2022-08-26T12:00:33.542Z,22.70
2022-08-26T12:03:08.887Z,22.80
2022-08-26T12:05:43.893Z,22.80
2022-08-26T12:08:17.358Z,22.90
2022-08-26T12:10:46.159Z,22.90
2022-08-26T12:13:22.305Z,23.00
2022-08-26T12:15:56.339Z,23.00
2022-08-26T12:18:30.385Z,23.00
2022-08-26T12:21:12.189Z,23.10
2022-08-26T12:23:43.981Z,23.10
2022-08-26T12:26:20.773Z,23.10
2022-08-26T12:28:52.992Z,23.10
2022-08-26T12:31:25.503Z,23.10
2022-08-26T12:33:56.885Z,23.10
2022-08-26T12:36:31.558Z,23.10
2022-08-26T12:39:11.826Z,23.10
2022-08-26T12:41:49.567Z,23.00
2022-08-26T12:44:42.165Z,23.00
2022-08-26T12:47:42.661Z,23.00
2022-08-26T12:50:19.949Z,22.90
2022-08-26T12:52:57.230Z,22.90
2022-08-26T12:55:35.364Z,22.90
2022-08-26T12:58:25.806Z,22.90
2022-08-26T13:00:56.907Z,23.00
2022-08-26T13:03:46.108Z,23.00
2022-08-26T13:06:29.667Z,23.10
2022-08-26T13:09:00.222Z,23.10
2022-08-26T13:11:31.812Z,23.20
2022-08-26T13:14:02.961Z,23.20
2022-08-26T13:16:36.412Z,23.30
2022-08-26T13:19:10.439Z,23.40
2022-08-26T13:21:45.080Z,23.40
2022-08-26T13:24:15.697Z,23.40
2022-08-26T13:26:47.066Z,23.50
2022-08-26T13:29:15.637Z,23.50
2022-08-26T13:31:45.059Z,23.50
2022-08-26T13:34:18.000Z,23.50
2022-08-26T13:36:48.460Z,23.60
2022-08-26T13:39:17.800Z,23.60
2022-08-26T13:41:46.387Z,23.60
2022-08-26T13:44:14.987Z,23.50
2022-08-26T13:49:17.460Z,23.40
2022-08-26T13:51:47.483Z,23.40
2022-08-26T13:54:16.098Z,23.40
2022-08-26T13:56:45.109Z,23.30
2022-08-26T13:59:13.738Z,23.30
2022-08-26T14:01:42.361Z,23.30
2022-08-26T14:04:10.931Z,23.40
2022-08-26T14:06:39.521Z,23.40
2022-08-26T14:09:09.308Z,23.40
2022-08-26T14:11:54.169Z,23.40
2022-08-26T14:14:23.704Z,23.50
2022-08-26T14:16:59.449Z,23.50
2022-08-26T14:19:30.300Z,23.50
2022-08-26T14:22:00.703Z,23.50
2022-08-26T14:24:31.228Z,23.50
2022-08-26T14:26:59.812Z,23.60
2022-08-26T14:29:28.640Z,23.60
2022-08-26T14:31:59.631Z,23.70
2022-08-26T14:34:28.309Z,23.70
2022-08-26T14:36:56.879Z,23.70
2022-08-26T14:39:25.486Z,23.70
2022-08-26T14:41:57.408Z,23.70
2022-08-26T14:44:28.722Z,23.70
2022-08-26T14:46:57.900Z,23.70
2022-08-26T14:49:27.226Z,23.70
2022-08-26T14:51:56.366Z,23.70
2022-08-26T14:54:24.234Z,23.60
2022-08-26T14:56:56.911Z,23.60
2022-08-26T14:59:28.549Z,23.60
2022-08-26T15:01:58.124Z,23.50
2022-08-26T15:04:27.412Z,23.50
2022-08-26T15:06:57.549Z,23.40
2022-08-26T15:09:27.064Z,23.30
2022-08-26T15:11:57.297Z,23.30
2022-08-26T15:14:28.590Z,23.30
2022-08-26T15:16:59.653Z,23.30
2022-08-26T15:19:29.098Z,23.30
2022-08-26T15:21:57.712Z,23.40
2022-08-26T15:24:28.779Z,23.40
2022-08-26T15:26:58.722Z,23.50
2022-08-26T15:29:27.372Z,23.50
2022-08-26T15:31:57.264Z,23.50
2022-08-26T15:34:26.833Z,23.50
2022-08-26T15:36:55.464Z,23.50
2022-08-26T15:39:24.377Z,23.50
2022-08-26T15:41:53.057Z,23.50
2022-08-26T15:44:23.748Z,23.50
2022-08-26T15:46:58.411Z,23.50
2022-08-26T15:49:28.437Z,23.40
2022-08-26T15:51:57.092Z,23.40
2022-08-26T15:54:25.622Z,23.40
2022-08-26T15:56:57.113Z,23.40
2022-08-26T15:59:27.056Z,23.40
2022-08-26T16:01:55.621Z,23.40
2022-08-26T16:04:24.357Z,23.30
2022-08-26T16:06:53.265Z,23.30
2022-08-26T16:09:24.342Z,23.30
2022-08-26T16:11:53.145Z,23.30
2022-08-26T16:14:22.117Z,23.30
2022-08-26T16:16:52.235Z,23.30
2022-08-26T16:19:20.997Z,23.40
2022-08-26T16:21:50.752Z,23.30
2022-08-26T16:24:23.125Z,23.40
2022-08-26T16:26:54.446Z,23.40
2022-08-26T16:29:23.049Z,23.30
2022-08-26T16:31:53.748Z,23.30
2022-08-26T16:34:22.883Z,23.30
2022-08-26T16:36:51.559Z,23.20
2022-08-26T16:39:20.129Z,23.20
2022-08-26T16:41:48.689Z,23.20
2022-08-26T16:44:17.309Z,23.20
2022-08-26T16:46:45.995Z,23.20
2022-08-26T16:49:16.272Z,23.20
2022-08-26T16:51:44.814Z,23.10
2022-08-26T16:54:13.504Z,23.10
2022-08-26T16:56:42.139Z,23.10
2022-08-26T16:59:12.037Z,23.00
2022-08-26T17:01:40.655Z,23.00
2022-08-26T17:04:09.457Z,22.90
2022-08-26T17:06:39.377Z,22.80
2022-08-26T17:09:08.381Z,22.70
2022-08-26T17:11:36.996Z,22.70
2022-08-26T17:14:05.956Z,22.70
2022-08-26T17:16:34.642Z,22.60
2022-08-26T17:19:04.480Z,22.50
2022-08-26T17:21:35.017Z,22.50
2022-08-26T17:24:07.456Z,22.40
2022-08-26T17:26:37.672Z,22.40
2022-08-26T17:29:07.259Z,22.40
2022-08-26T17:31:36.157Z,22.30
2022-08-26T17:34:05.329Z,22.30
2022-08-26T17:36:34.048Z,22.30
2022-08-26T17:39:02.665Z,22.30
2022-08-26T17:41:32.905Z,22.20
2022-08-26T17:44:01.485Z,22.20
2022-08-26T17:46:33.213Z,22.10
2022-08-26T17:49:02.868Z,22.00
2022-08-26T17:51:31.664Z,22.00
2022-08-26T17:54:00.344Z,22.00
2022-08-26T17:56:30.525Z,21.90
2022-08-26T17:59:02.359Z,21.90
2022-08-26T18:01:33.075Z,21.90
2022-08-26T18:04:01.796Z,21.90
2022-08-26T18:06:31.376Z,21.80
2022-08-26T18:09:01.010Z,21.80
2022-08-26T18:11:31.132Z,21.80
2022-08-26T18:14:01.494Z,21.70
2022-08-26T18:16:31.837Z,21.70
2022-08-26T18:19:01.185Z,21.70
2022-08-26T18:21:29.805Z,21.70
2022-08-26T18:23:58.689Z,21.70
2022-08-26T18:26:29.617Z,21.70
2022-08-26T18:29:00.518Z,21.70
2022-08-26T18:31:29.959Z,21.70
2022-08-26T18:34:00.573Z,21.70
2022-08-26T18:36:31.925Z,21.70
2022-08-26T18:39:00.926Z,21.70
2022-08-26T18:41:31.517Z,21.60
2022-08-26T18:44:01.634Z,21.60
2022-08-26T18:46:30.296Z,21.60
2022-08-26T18:48:59.029Z,21.70
2022-08-26T18:51:30.624Z,21.60
2022-08-26T18:54:03.279Z,21.60
2022-08-26T18:56:32.531Z,21.60
2022-08-26T18:59:02.813Z,21.60
2022-08-26T19:01:31.786Z,21.60
2022-08-26T19:04:02.640Z,21.60
2022-08-26T19:06:32.994Z,21.50
2022-08-26T19:09:01.677Z,21.50
2022-08-26T19:11:32.135Z,21.50
2022-08-26T19:14:09.071Z,21.50
2022-08-26T19:16:38.753Z,21.50
2022-08-26T19:19:07.949Z,21.50
2022-08-26T19:21:38.026Z,21.50
2022-08-26T19:24:17.317Z,21.50
2022-08-26T19:26:47.229Z,21.50
2022-08-26T19:31:51.389Z,21.50
2022-08-26T19:34:20.216Z,21.40
2022-08-26T19:36:51.986Z,21.40
2022-08-26T19:39:20.888Z,21.40
2022-08-26T19:41:49.900Z,21.40
2022-08-26T19:44:36.170Z,21.40
2022-08-26T19:47:06.105Z,21.40
2022-08-26T19:49:35.552Z,21.40
2022-08-26T19:52:05.621Z,21.30
2022-08-26T19:54:35.183Z,21.30
2022-08-26T19:57:04.470Z,21.30
2022-08-26T19:59:36.085Z,21.20
2022-08-26T20:02:09.985Z,21.20
2022-08-26T20:04:40.045Z,21.20
2022-08-26T20:07:09.774Z,21.20
2022-08-26T20:09:38.795Z,21.20
2022-08-26T20:12:08.301Z,21.20
2022-08-26T20:14:38.475Z,21.10
2022-08-26T20:17:07.774Z,21.10
2022-08-26T20:20:14.752Z,21.10
2022-08-26T20:22:57.928Z,21.10
2022-08-26T20:25:26.991Z,21.10
2022-08-26T20:27:55.513Z,21.00
2022-08-26T20:30:25.496Z,21.00
2022-08-26T20:32:54.025Z,21.00
2022-08-26T20:35:23.800Z,21.00
2022-08-26T20:37:52.419Z,20.90
2022-08-26T20:40:21.308Z,20.90
2022-08-26T20:42:49.954Z,20.90
2022-08-26T20:45:18.577Z,20.90
2022-08-26T20:47:48.427Z,20.90
2022-08-26T20:50:16.921Z,20.90
2022-08-26T20:52:46.432Z,20.90
2022-08-26T20:55:15.019Z,20.90
2022-08-26T20:57:43.645Z,20.80
2022-08-26T21:00:16.061Z,20.80
2022-08-26T21:02:46.228Z,20.80
2022-08-26T21:05:16.257Z,20.80
2022-08-26T21:07:45.025Z,20.70
2022-08-26T21:10:13.981Z,20.70
2022-08-26T21:12:42.759Z,20.70
2022-08-26T21:15:12.060Z,20.70
2022-08-26T21:17:40.581Z,20.70
2022-08-26T21:20:10.136Z,20.70
2022-08-26T21:22:40.335Z,20.70
2022-08-26T21:25:09.847Z,20.70
2022-08-26T21:27:39.527Z,20.70
2022-08-26T21:30:09.349Z,20.80
2022-08-26T21:32:38.053Z,20.80
2022-08-26T21:35:07.467Z,20.70
2022-08-26T21:37:36.064Z,20.70
2022-08-26T21:40:08.157Z,20.70
2022-08-26T21:42:36.838Z,20.70
2022-08-26T21:45:06.362Z,20.70
2022-08-26T21:47:34.867Z,20.70
2022-08-26T21:50:03.686Z,20.70
2022-08-26T21:52:32.287Z,20.70
2022-08-26T21:55:02.371Z,20.70
2022-08-26T21:57:33.905Z,20.70
2022-08-26T22:00:04.684Z,20.60
2022-08-26T22:02:35.272Z,20.70
2022-08-26T22:05:04.523Z,20.70
2022-08-26T22:07:33.023Z,20.70
2022-08-26T22:10:02.146Z,20.70
2022-08-26T22:12:32.078Z,20.70
2022-08-26T22:15:00.678Z,20.70
2022-08-26T22:17:29.772Z,20.70
2022-08-26T22:19:58.347Z,20.70
2022-08-26T22:22:29.177Z,20.70
2022-08-26T22:24:57.921Z,20.60
2022-08-26T22:27:26.626Z,20.60
2022-08-26T22:29:56.542Z,20.60
2022-08-26T22:32:25.086Z,20.60
2022-08-26T22:34:53.609Z,20.60
2022-08-26T22:37:22.156Z,20.60
2022-08-26T22:39:50.670Z,20.60
2022-08-26T22:42:19.355Z,20.50
2022-08-26T22:44:47.896Z,20.50
2022-08-26T22:47:18.446Z,20.50
2022-08-26T22:49:47.008Z,20.50
2022-08-26T22:52:15.665Z,20.50
2022-08-26T22:54:45.177Z,20.50
2022-08-26T22:57:13.714Z,20.50
2022-08-26T22:59:42.446Z,20.50
2022-08-26T23:02:11.137Z,20.50
2022-08-26T23:04:42.869Z,20.50
2022-08-26T23:07:11.518Z,20.50
2022-08-26T23:09:40.300Z,20.50
2022-08-26T23:12:09.076Z,20.50
2022-08-26T23:14:38.181Z,20.40
2022-08-26T23:17:09.857Z,20.40
2022-08-26T23:19:38.816Z,20.40
2022-08-26T23:22:08.749Z,20.40
2022-08-26T23:24:37.316Z,20.40
2022-08-26T23:27:06.185Z,20.40
2022-08-26T23:29:35.648Z,20.40
2022-08-26T23:32:05.136Z,20.40
2022-08-26T23:34:51.623Z,20.40
2022-08-26T23:37:21.716Z,20.30
2022-08-26T23:39:52.056Z,20.30
2022-08-26T23:42:20.649Z,20.30
2022-08-26T23:44:49.277Z,20.30
2022-08-26T23:47:19.175Z,20.30
2022-08-26T23:49:47.689Z,20.30
2022-08-26T23:52:33.967Z,20.30
2022-08-26T23:55:04.197Z,20.20
2022-08-26T23:57:34.520Z,20.20
